Commodore Goodwill — C6NU8 — position and weather

sailwx.info

Track history (hours):
 
Tides and Currents Weather Stations Pressure Air Temp Water Temp Dewpoint Dewpoint Depression Visibility Wind Speed Wind Dir Waves Ship Positions

Commodore Goodwill

Operator: Condor Marine Services

Last reported at 2019-Nov-20 04:30 UTC. Time now 2019-Nov-20 09:19 UTC.
Position N 49°27' W 002°32'.

Length 126 m; draft 5.2 m.

Type: Ship (hazmat cat C). MMSI: 309536000.

Date/timePositionNaut miles runAvg speedWind from/ knotsBaromVisibWave heightAir tempDewpointWater temp
2019-Nov-20 04:30N 49°27' W 002°32'0 0.0
2019-Nov-20 03:30N 49°27' W 002°32'1010.0
2019-Nov-20 02:31N 49°31' W 002°17'8715.8
2019-Nov-19 21:01N 50°44' W 001°04'5 1.8
2019-Nov-19 18:30N 50°49' W 001°06'0 0.0
2019-Nov-19 18:00N 50°49' W 001°06'0 0.0
2019-Nov-19 16:30N 50°49' W 001°06'8815.8
2019-Nov-19 10:55N 49°31' W 002°11'14 2.1
2019-Nov-19 04:30N 49°23' W 002°28'7911.0
2019-Nov-18 21:22N 50°27' W 001°17'1416.2
2019-Nov-18 20:31N 50°39' W 001°05'714.0
2019-Nov-18 20:00N 50°46' W 001°05'3 5.8
2019-Nov-18 19:30N 50°49' W 001°06'2 0.5
2019-Nov-18 16:00N 50°47' W 001°06'714.0
2019-Nov-18 15:31N 50°40' W 001°04'9915.7
2019-Nov-18 09:12N 49°14' W 002°21'5 1.2
2019-Nov-18 04:51N 49°19' W 002°24'1011.6
2019-Nov-18 04:01N 49°27' W 002°32'0 0.0
2019-Nov-18 03:00N 49°27' W 002°32'9 8.8
2019-Nov-18 02:00N 49°30' W 002°19'8213.7
2019-Nov-17 20:00N 50°38' W 001°06'11 4.4
2019-Nov-17 17:31N 50°49' W 001°06'0 0.0
2019-Nov-17 17:01N 50°49' W 001°06'104 3.1
2019-Nov-16 07:26N 49°18' W 002°24'1112.1
2019-Nov-16 06:30N 49°27' W 002°32'9712.1
2019-Nov-15 22:30N 50°48' W 001°07'1 0.5
2019-Nov-15 20:00N 50°49' W 001°06'0 0.0
2019-Nov-15 19:00N 50°49' W 001°06'0 0.2
2019-Nov-15 18:01N 50°49' W 001°06'8614.3
2019-Nov-15 12:00N 49°36' W 002°18'12 5.0
2019-Nov-15 09:30N 49°27' W 002°32'11 1.9
2019-Nov-15 03:30N 49°26' W 002°14'8717.5
2019-Nov-14 22:31N 50°40' W 001°04'9 2.8
2019-Nov-14 19:30N 50°49' W 001°06'0 0.0
2019-Nov-14 19:00N 50°49' W 001°06'0 0.0
2019-Nov-14 18:31N 50°49' W 001°06'1 1.6
2019-Nov-14 18:01N 50°48' W 001°07'612.0
2019-Nov-14 17:31N 50°43' W 001°01'9613.7
2019-Nov-14 10:30N 49°27' W 002°32'12 1.9
2019-Nov-14 03:59N 49°18' W 002°20'3718.9
2019-Nov-14 02:00N 49°53' W 001°57'4819.3
2019-Nov-13 23:31N 50°32' W 001°13'18 8.8
2019-Nov-13 21:31N 50°49' W 001°06'0 0.0
2019-Nov-13 20:30N 50°49' W 001°06'0 0.0
2019-Nov-13 18:31N 50°49' W 001°06'0 0.0
2019-Nov-13 18:01N 50°49' W 001°06'5215.0
2019-Nov-13 14:30N 50°03' W 001°45'815.9
2019-Nov-13 14:00N 49°56' W 001°51'2814.7
2019-Nov-13 12:08N 49°31' W 002°11'1117.2
2019-Nov-13 11:29N 49°21' W 002°17'7 1.3
2019-Nov-13 06:00N 49°24' W 002°28'21 6.2
2019-Nov-13 02:36N 49°39' W 002°06'715.2
2019-Nov-13 02:07N 49°46' W 002°01'214.2
2019-Nov-13 02:00N 49°48' W 002°00'3416.8
2019-Nov-13 00:01N 50°15' W 001°29'3517.3
2019-Nov-12 22:00N 50°46' W 001°05'3 0.8
2019-Nov-12 18:00N 50°49' W 001°06'3914.7
2019-Nov-12 15:22N 50°13' W 001°30'615.9
2019-Nov-12 15:00N 50°10' W 001°38'1615.8
2019-Nov-12 14:00N 49°57' W 001°51'815.5
2019-Nov-12 13:31N 49°50' W 001°57'2214.3
2019-Nov-12 12:00N 49°30' W 002°11'816.6
2019-Nov-12 11:30N 49°23' W 002°17'9 1.6
2019-Nov-12 05:49N 49°21' W 002°31'6 2.6
2019-Nov-12 03:30N 49°26' W 002°26'1411.8
2019-Nov-12 02:19N 49°33' W 002°07'1313.8
2019-Nov-12 01:21N 49°46' W 002°02'1914.4
2019-Nov-12 00:00N 50°03' W 001°47'4016.0
2019-Nov-11 21:30N 50°35' W 001°10'816.1
2019-Nov-11 21:00N 50°42' W 001°03'7 3.0
2019-Nov-11 18:31N 50°49' W 001°06'0 0.0
2019-Nov-11 17:30N 50°49' W 001°06'2 4.3
2019-Nov-11 17:01N 50°47' W 001°06'714.8
2019-Nov-11 16:30N 50°39' W 001°05'3218.2
2019-Nov-11 14:47N 50°13' W 001°31'2916.1
2019-Nov-11 13:00N 49°49' W 001°57'1813.7
2019-Nov-11 11:40N 49°32' W 002°07'2116.1
2019-Nov-11 10:23N 49°13' W 002°20'16 2.3
2019-Nov-11 03:31N 49°27' W 002°32'4 3.7
2019-Nov-11 02:30N 49°26' W 002°26'712.6
2019-Nov-11 01:59N 49°30' W 002°18'1812.2
2019-Nov-11 00:31N 49°45' W 002°03'013.7
2019-Nov-11 00:30N 49°45' W 002°03'1313.0
2019-Nov-10 23:30N 49°56' W 001°53'1716.5
2019-Nov-10 22:30N 50°10' W 001°39'2514.6
2019-Nov-10 20:48N 50°30' W 001°15'20 8.6
2019-Nov-10 18:30N 50°49' W 001°06'0 0.0
2019-Nov-10 16:00N 50°49' W 001°06'0 0.0
2019-Nov-10 09:00N 50°49' W 001°06'3510.2
2019-Nov-10 05:33N 50°16' W 001°26'  
Track history (hours):
 
Tides and Currents Weather Stations Pressure Air Temp Water Temp Dewpoint Dewpoint Depression Visibility Wind Speed Wind Dir Waves Ship Positions

Commodore Goodwill

Operator: Condor Marine Services

Last reported at 2019-Nov-20 04:30 UTC. Time now 2019-Nov-20 09:19 UTC.
Position N 49°27' W 002°32'.

Length 126 m; draft 5.2 m.

Type: Ship (hazmat cat C). MMSI: 309536000.

Date/timePositionNaut miles runAvg speedWind from/ knotsBaromVisibWave heightAir tempDewpointWater temp
2019-Nov-20 04:30N 49°27' W 002°32'0 0.0
2019-Nov-20 03:30N 49°27' W 002°32'1010.0
2019-Nov-20 02:31N 49°31' W 002°17'8715.8
2019-Nov-19 21:01N 50°44' W 001°04'5 1.8
2019-Nov-19 18:30N 50°49' W 001°06'0 0.0
2019-Nov-19 18:00N 50°49' W 001°06'0 0.0
2019-Nov-19 16:30N 50°49' W 001°06'8815.8
2019-Nov-19 10:55N 49°31' W 002°11'14 2.1
2019-Nov-19 04:30N 49°23' W 002°28'7911.0
2019-Nov-18 21:22N 50°27' W 001°17'1416.2
2019-Nov-18 20:31N 50°39' W 001°05'714.0
2019-Nov-18 20:00N 50°46' W 001°05'3 5.8
2019-Nov-18 19:30N 50°49' W 001°06'2 0.5
2019-Nov-18 16:00N 50°47' W 001°06'714.0
2019-Nov-18 15:31N 50°40' W 001°04'9915.7
2019-Nov-18 09:12N 49°14' W 002°21'5 1.2
2019-Nov-18 04:51N 49°19' W 002°24'1011.6
2019-Nov-18 04:01N 49°27' W 002°32'0 0.0
2019-Nov-18 03:00N 49°27' W 002°32'9 8.8
2019-Nov-18 02:00N 49°30' W 002°19'8213.7
2019-Nov-17 20:00N 50°38' W 001°06'11 4.4
2019-Nov-17 17:31N 50°49' W 001°06'0 0.0
2019-Nov-17 17:01N 50°49' W 001°06'104 3.1
2019-Nov-16 07:26N 49°18' W 002°24'1112.1
2019-Nov-16 06:30N 49°27' W 002°32'9712.1
2019-Nov-15 22:30N 50°48' W 001°07'1 0.5
2019-Nov-15 20:00N 50°49' W 001°06'0 0.0
2019-Nov-15 19:00N 50°49' W 001°06'0 0.2
2019-Nov-15 18:01N 50°49' W 001°06'8614.3
2019-Nov-15 12:00N 49°36' W 002°18'12 5.0
2019-Nov-15 09:30N 49°27' W 002°32'11 1.9
2019-Nov-15 03:30N 49°26' W 002°14'8717.5
2019-Nov-14 22:31N 50°40' W 001°04'9 2.8
2019-Nov-14 19:30N 50°49' W 001°06'0 0.0
2019-Nov-14 19:00N 50°49' W 001°06'0 0.0
2019-Nov-14 18:31N 50°49' W 001°06'1 1.6
2019-Nov-14 18:01N 50°48' W 001°07'612.0
2019-Nov-14 17:31N 50°43' W 001°01'9613.7
2019-Nov-14 10:30N 49°27' W 002°32'12 1.9
2019-Nov-14 03:59N 49°18' W 002°20'3718.9
2019-Nov-14 02:00N 49°53' W 001°57'4819.3
2019-Nov-13 23:31N 50°32' W 001°13'18 8.8
2019-Nov-13 21:31N 50°49' W 001°06'0 0.0
2019-Nov-13 20:30N 50°49' W 001°06'0 0.0
2019-Nov-13 18:31N 50°49' W 001°06'0 0.0
2019-Nov-13 18:01N 50°49' W 001°06'5215.0
2019-Nov-13 14:30N 50°03' W 001°45'815.9
2019-Nov-13 14:00N 49°56' W 001°51'2814.7
2019-Nov-13 12:08N 49°31' W 002°11'1117.2
2019-Nov-13 11:29N 49°21' W 002°17'7 1.3
2019-Nov-13 06:00N 49°24' W 002°28'21 6.2
2019-Nov-13 02:36N 49°39' W 002°06'715.2
2019-Nov-13 02:07N 49°46' W 002°01'214.2
2019-Nov-13 02:00N 49°48' W 002°00'3416.8
2019-Nov-13 00:01N 50°15' W 001°29'3517.3
2019-Nov-12 22:00N 50°46' W 001°05'3 0.8
2019-Nov-12 18:00N 50°49' W 001°06'3914.7
2019-Nov-12 15:22N 50°13' W 001°30'615.9
2019-Nov-12 15:00N 50°10' W 001°38'1615.8
2019-Nov-12 14:00N 49°57' W 001°51'815.5
2019-Nov-12 13:31N 49°50' W 001°57'2214.3
2019-Nov-12 12:00N 49°30' W 002°11'816.6
2019-Nov-12 11:30N 49°23' W 002°17'9 1.6
2019-Nov-12 05:49N 49°21' W 002°31'6 2.6
2019-Nov-12 03:30N 49°26' W 002°26'1411.8
2019-Nov-12 02:19N 49°33' W 002°07'1313.8
2019-Nov-12 01:21N 49°46' W 002°02'1914.4
2019-Nov-12 00:00N 50°03' W 001°47'4016.0
2019-Nov-11 21:30N 50°35' W 001°10'816.1
2019-Nov-11 21:00N 50°42' W 001°03'7 3.0
2019-Nov-11 18:31N 50°49' W 001°06'0 0.0
2019-Nov-11 17:30N 50°49' W 001°06'2 4.3
2019-Nov-11 17:01N 50°47' W 001°06'714.8
2019-Nov-11 16:30N 50°39' W 001°05'3218.2
2019-Nov-11 14:47N 50°13' W 001°31'2916.1
2019-Nov-11 13:00N 49°49' W 001°57'1813.7
2019-Nov-11 11:40N 49°32' W 002°07'2116.1
2019-Nov-11 10:23N 49°13' W 002°20'16 2.3
2019-Nov-11 03:31N 49°27' W 002°32'4 3.7
2019-Nov-11 02:30N 49°26' W 002°26'712.6
2019-Nov-11 01:59N 49°30' W 002°18'1812.2
2019-Nov-11 00:31N 49°45' W 002°03'013.7
2019-Nov-11 00:30N 49°45' W 002°03'1313.0
2019-Nov-10 23:30N 49°56' W 001°53'1716.5
2019-Nov-10 22:30N 50°10' W 001°39'2514.6
2019-Nov-10 20:48N 50°30' W 001°15'20 8.6
2019-Nov-10 18:30N 50°49' W 001°06'0 0.0
2019-Nov-10 16:00N 50°49' W 001°06'0 0.0
2019-Nov-10 09:00N 50°49' W 001°06'3510.2
2019-Nov-10 05:33N 50°16' W 001°26'  

Dump ship's entire track history